createdAt,value
2018-07-27T00:00:44.268Z,0.00
2018-07-27T00:01:44.268Z,0.00
2018-07-27T00:02:44.271Z,0.00
2018-07-27T00:03:44.276Z,0.00
2018-07-27T00:04:44.276Z,0.00
2018-07-27T00:05:44.277Z,0.00
2018-07-27T00:06:44.279Z,0.00
2018-07-27T00:07:44.281Z,0.00
2018-07-27T00:08:44.284Z,0.00
2018-07-27T00:09:44.285Z,0.00
2018-07-27T00:10:44.287Z,0.00
2018-07-27T00:11:44.289Z,0.00
2018-07-27T00:12:44.292Z,0.00
2018-07-27T00:13:44.293Z,0.00
2018-07-27T00:14:44.346Z,0.00
2018-07-27T00:15:44.303Z,0.00
2018-07-27T00:16:44.299Z,0.00
2018-07-27T00:17:44.301Z,0.00
2018-07-27T00:18:44.303Z,0.00
2018-07-27T00:19:44.306Z,0.00
2018-07-27T00:20:44.308Z,0.00
2018-07-27T00:21:44.310Z,0.00
2018-07-27T00:22:44.311Z,0.00
2018-07-27T00:23:44.313Z,0.00
2018-07-27T00:24:44.316Z,0.00
2018-07-27T00:25:44.320Z,0.00
2018-07-27T00:26:44.322Z,0.00
2018-07-27T00:27:44.321Z,0.00
2018-07-27T00:28:44.323Z,0.00
2018-07-27T00:29:44.325Z,0.00
2018-07-27T00:30:44.326Z,0.00
2018-07-27T06:21:44.724Z,101.25
2018-07-27T06:22:44.726Z,112.50
2018-07-27T06:23:44.764Z,106.88
2018-07-27T06:24:44.731Z,112.50
2018-07-27T06:25:44.788Z,106.88
2018-07-27T06:26:44.735Z,112.50
2018-07-27T06:27:44.738Z,112.50
2018-07-27T06:28:44.740Z,112.50
2018-07-27T06:29:44.741Z,112.50
2018-07-27T06:30:44.744Z,112.50
2018-07-27T06:31:44.750Z,112.50
2018-07-27T06:32:44.749Z,112.50
2018-07-27T06:33:44.794Z,112.50
2018-07-27T06:34:44.816Z,112.50
2018-07-27T06:35:44.756Z,118.13
2018-07-27T06:36:44.760Z,118.13
2018-07-27T06:37:44.762Z,118.13
2018-07-27T06:38:44.764Z,118.13
2018-07-27T06:39:44.768Z,118.13
2018-07-27T06:40:44.769Z,118.13
2018-07-27T06:41:44.772Z,118.13
2018-07-27T06:42:44.775Z,123.75
2018-07-27T06:43:44.777Z,123.75
2018-07-27T06:44:44.783Z,123.75
2018-07-27T06:45:44.782Z,123.75
2018-07-27T06:46:44.787Z,129.38
2018-07-27T06:47:44.792Z,129.38
2018-07-27T06:48:44.791Z,129.38
2018-07-27T06:49:44.793Z,135.00
2018-07-27T06:50:44.798Z,135.00
2018-07-27T06:51:44.799Z,135.00
2018-07-27T06:52:44.810Z,135.00
2018-07-27T06:53:44.804Z,135.00
2018-07-27T06:54:44.807Z,140.63
2018-07-27T06:55:44.874Z,140.63
2018-07-27T06:56:44.920Z,140.63
2018-07-27T06:57:44.818Z,135.00
2018-07-27T06:58:44.818Z,140.63
2018-07-27T06:59:44.822Z,140.63
2018-07-27T07:00:44.825Z,140.63
2018-07-27T07:01:44.828Z,140.63
2018-07-27T07:02:44.831Z,140.63
2018-07-27T07:03:44.834Z,146.25
2018-07-27T07:04:44.837Z,146.25
2018-07-27T07:05:44.840Z,146.25
2018-07-27T07:06:44.842Z,146.25
2018-07-27T07:07:44.846Z,146.25
2018-07-27T07:08:44.850Z,146.25
2018-07-27T07:09:44.852Z,151.88
2018-07-27T07:10:44.856Z,151.88
2018-07-27T07:11:44.859Z,151.88
2018-07-27T07:12:44.868Z,151.88
2018-07-27T07:13:44.865Z,157.50
2018-07-27T07:14:44.869Z,157.50
2018-07-27T07:15:44.872Z,157.50
2018-07-27T07:16:44.876Z,157.50
2018-07-27T07:17:44.878Z,540.00
2018-07-27T07:18:44.882Z,1485.00
2018-07-27T07:19:44.890Z,2103.75
2018-07-27T07:20:44.895Z,1366.88
2018-07-27T07:21:44.894Z,843.75
2018-07-27T07:22:44.898Z,810.00
2018-07-27T07:23:44.906Z,213.75
2018-07-27T07:24:44.910Z,247.50
2018-07-27T07:25:45.175Z,888.75
2018-07-27T07:26:44.920Z,1063.13
2018-07-27T07:27:44.926Z,1181.25
2018-07-27T07:28:44.978Z,1046.25
2018-07-27T07:29:44.936Z,770.63
2018-07-27T07:30:44.942Z,1046.25
2018-07-27T07:31:44.949Z,1181.25
2018-07-27T07:32:44.954Z,646.88
2018-07-27T07:33:44.961Z,652.50
2018-07-27T07:34:44.967Z,978.75
2018-07-27T07:35:44.974Z,1462.50
2018-07-27T07:36:44.980Z,1766.25
2018-07-27T07:37:44.987Z,500.63
2018-07-27T07:38:44.995Z,922.50
2018-07-27T07:39:45.002Z,1895.63
2018-07-27T07:40:45.010Z,1254.38
2018-07-27T07:41:45.017Z,635.63
2018-07-27T07:42:45.027Z,1035.00
2018-07-27T07:43:45.093Z,1175.63
2018-07-27T07:44:45.048Z,731.25
2018-07-27T07:45:45.053Z,416.25
2018-07-27T07:46:45.068Z,528.75
2018-07-27T07:47:45.071Z,697.50
2018-07-27T07:48:45.081Z,753.75
2018-07-27T07:49:45.113Z,438.75
2018-07-27T07:50:45.098Z,225.00
2018-07-27T07:51:45.108Z,208.13
2018-07-27T07:52:45.116Z,315.00
2018-07-27T07:53:45.123Z,438.75
2018-07-27T07:54:45.132Z,281.25
2018-07-27T07:55:45.219Z,247.50
2018-07-27T07:56:45.150Z,663.75
2018-07-27T07:57:45.157Z,675.00
2018-07-27T07:58:45.164Z,241.88
2018-07-27T07:59:45.173Z,298.13
2018-07-27T08:00:45.181Z,331.88
2018-07-27T08:01:45.190Z,832.50
2018-07-27T08:02:45.321Z,973.13
2018-07-27T08:03:45.203Z,1299.38
2018-07-27T08:04:45.211Z,1957.50
2018-07-27T08:05:45.219Z,2025.00
2018-07-27T08:06:45.228Z,1828.13
2018-07-27T08:07:45.239Z,1822.50
2018-07-27T08:08:45.249Z,2604.38
2018-07-27T08:09:45.256Z,1670.63
2018-07-27T08:10:45.267Z,1383.75
2018-07-27T08:11:45.278Z,2266.88
2018-07-27T08:12:45.292Z,2463.75
2018-07-27T08:13:45.303Z,2407.50
2018-07-27T08:14:45.315Z,2458.13
2018-07-27T08:15:45.327Z,2401.88
2018-07-27T08:16:45.691Z,2221.88
2018-07-27T08:17:45.353Z,2311.88
2018-07-27T08:18:45.366Z,2424.38
2018-07-27T08:19:45.380Z,2278.13
2018-07-27T08:20:45.397Z,2323.13
2018-07-27T08:21:45.407Z,2221.88
2018-07-27T08:22:45.422Z,2041.88
2018-07-27T08:23:45.438Z,2272.50
2018-07-27T08:24:45.452Z,2323.13
2018-07-27T08:25:45.520Z,2390.63
2018-07-27T08:26:45.484Z,2272.50
2018-07-27T08:27:45.498Z,2041.88
2018-07-27T08:28:45.513Z,2126.25
2018-07-27T08:29:45.528Z,2396.25
2018-07-27T08:30:45.544Z,2559.38
2018-07-27T08:31:45.560Z,2340.00
2018-07-27T08:32:45.576Z,2171.25
2018-07-27T08:33:45.590Z,2356.88
2018-07-27T08:34:45.607Z,2334.38
2018-07-27T08:35:45.623Z,2148.75
2018-07-27T08:36:45.662Z,2193.75
2018-07-27T08:37:45.654Z,2221.88
2018-07-27T08:38:45.672Z,2160.00
2018-07-27T08:39:45.720Z,2250.00
2018-07-27T08:40:45.704Z,2148.75
2018-07-27T08:41:45.719Z,2075.63
2018-07-27T08:42:45.735Z,2244.38
2018-07-27T08:43:45.752Z,2193.75
2018-07-27T08:44:45.768Z,2154.38
2018-07-27T08:45:45.783Z,2345.63
2018-07-27T08:46:45.838Z,2250.00
2018-07-27T08:47:45.819Z,2041.88
2018-07-27T08:48:45.833Z,2064.38
2018-07-27T08:49:45.851Z,2238.75
2018-07-27T08:50:45.864Z,2176.88
2018-07-27T08:51:45.881Z,1912.50
2018-07-27T08:52:45.897Z,1940.63
2018-07-27T08:53:45.914Z,2092.50
2018-07-27T08:54:45.930Z,2160.00
2018-07-27T08:55:46.043Z,2041.88
2018-07-27T08:56:45.972Z,2103.75
2018-07-27T08:57:45.995Z,1918.13
2018-07-27T08:58:46.176Z,1873.13
2018-07-27T08:59:46.014Z,1923.75
2018-07-27T09:00:46.031Z,1996.88
2018-07-27T09:01:46.048Z,2036.25
2018-07-27T09:02:46.066Z,2053.13
2018-07-27T09:03:46.089Z,2081.25
2018-07-27T09:04:46.098Z,2216.25
2018-07-27T09:05:46.114Z,1800.00
2018-07-27T09:06:46.132Z,1873.13
2018-07-27T09:07:46.152Z,2098.13
2018-07-27T09:08:46.165Z,1963.13
2018-07-27T09:09:46.182Z,1828.13
2018-07-27T09:10:46.199Z,1850.63
2018-07-27T09:11:46.216Z,1715.63
2018-07-27T09:12:46.235Z,1822.50
2018-07-27T09:13:46.250Z,1890.00
2018-07-27T09:14:46.266Z,1749.38
2018-07-27T09:15:46.284Z,1783.13
2018-07-27T09:16:46.300Z,1845.00
2018-07-27T09:17:46.317Z,1811.25
2018-07-27T09:18:46.334Z,1822.50
2018-07-27T09:19:46.485Z,1884.38
2018-07-27T09:20:46.369Z,1805.63
2018-07-27T09:21:46.386Z,1743.75
2018-07-27T09:22:46.524Z,1805.63
2018-07-27T09:23:46.419Z,1760.63
2018-07-27T09:24:46.565Z,1811.25
2018-07-27T09:25:46.492Z,1845.00
2018-07-27T09:26:46.469Z,1755.00
2018-07-27T09:27:46.486Z,1541.25
2018-07-27T09:28:46.508Z,1659.38
2018-07-27T09:29:46.519Z,1642.50
2018-07-27T09:30:46.537Z,1524.38
2018-07-27T09:31:46.554Z,1569.38
2018-07-27T09:32:46.572Z,1597.50
2018-07-27T09:33:46.586Z,1620.00
2018-07-27T09:34:46.605Z,1569.38
2018-07-27T09:35:46.620Z,1485.00
2018-07-27T09:36:46.636Z,1586.25
2018-07-27T09:37:46.653Z,1524.38
2018-07-27T09:38:46.673Z,1558.13
2018-07-27T09:39:46.747Z,1546.88
2018-07-27T09:40:46.712Z,1423.13
2018-07-27T09:41:46.718Z,1411.88
2018-07-27T09:42:46.735Z,1535.63
2018-07-27T09:43:46.839Z,1518.75
2018-07-27T09:44:46.800Z,1372.50
2018-07-27T09:45:46.837Z,1395.00
2018-07-27T09:46:46.799Z,1468.13
2018-07-27T09:47:46.815Z,1400.63
2018-07-27T09:48:46.831Z,1293.75
2018-07-27T09:49:46.868Z,1282.50
2018-07-27T09:50:47.145Z,1305.00
2018-07-27T09:51:46.878Z,1288.13
2018-07-27T09:52:46.893Z,1383.75
2018-07-27T09:53:46.914Z,1406.25
2018-07-27T09:54:47.081Z,1400.63
2018-07-27T09:55:47.061Z,1366.88
2018-07-27T09:56:46.982Z,1389.38
2018-07-27T09:57:46.978Z,1378.13
2018-07-27T09:58:46.984Z,1485.00
2018-07-27T09:59:47.000Z,1603.13
2018-07-27T10:00:47.016Z,1726.88
2018-07-27T10:01:47.031Z,1462.50
2018-07-27T10:02:47.044Z,961.88
2018-07-27T10:03:47.062Z,787.50
2018-07-27T10:04:47.077Z,703.13
2018-07-27T10:05:47.133Z,658.13
2018-07-27T10:06:47.108Z,596.25
2018-07-27T10:07:47.124Z,618.75
2018-07-27T10:08:47.138Z,630.00
2018-07-27T10:09:47.152Z,630.00
2018-07-27T10:10:47.167Z,658.13
2018-07-27T10:11:47.183Z,669.38
2018-07-27T10:12:47.201Z,691.88
2018-07-27T10:13:47.231Z,731.25
2018-07-27T10:14:47.227Z,804.38
2018-07-27T10:15:47.242Z,843.75
2018-07-27T10:16:47.257Z,883.13
2018-07-27T10:17:47.272Z,894.38
2018-07-27T10:18:47.288Z,916.88
2018-07-27T10:19:47.306Z,961.88
2018-07-27T10:20:47.317Z,978.75
2018-07-27T10:21:47.331Z,1001.25
2018-07-27T10:22:47.346Z,1029.38
2018-07-27T10:23:47.362Z,1057.50
2018-07-27T10:24:47.376Z,1068.75
2018-07-27T10:25:47.439Z,1091.25
2018-07-27T10:26:47.405Z,1108.13
2018-07-27T10:27:47.419Z,1130.63
2018-07-27T10:28:47.436Z,1136.25
2018-07-27T10:29:47.452Z,1153.13
2018-07-27T10:30:47.463Z,1147.50
2018-07-27T10:31:47.477Z,1147.50
2018-07-27T10:32:47.492Z,1175.63
2018-07-27T10:33:47.506Z,1181.25
2018-07-27T10:34:47.519Z,1198.13
2018-07-27T10:35:47.536Z,1186.88
2018-07-27T10:36:47.550Z,1237.50
2018-07-27T10:37:47.565Z,1243.13
2018-07-27T10:38:47.578Z,1265.63
2018-07-27T10:39:47.594Z,1299.38
2018-07-27T10:40:47.630Z,1350.00
2018-07-27T10:41:47.622Z,1411.88
2018-07-27T10:42:47.637Z,1552.50
2018-07-27T10:43:47.651Z,1479.38
2018-07-27T10:44:47.723Z,1513.13
2018-07-27T10:45:47.680Z,1648.13
2018-07-27T10:46:47.694Z,1501.88
2018-07-27T10:47:47.709Z,1462.50
2018-07-27T10:48:47.726Z,1423.13
2018-07-27T10:49:47.737Z,1378.13
2018-07-27T10:50:47.815Z,1361.25
2018-07-27T10:51:47.766Z,1338.75
2018-07-27T10:52:47.782Z,1293.75
2018-07-27T10:53:47.900Z,1276.88
2018-07-27T10:54:47.809Z,1260.00
2018-07-27T10:55:47.931Z,1243.13
2018-07-27T10:56:47.837Z,1192.50
2018-07-27T10:57:47.851Z,1136.25
2018-07-27T10:58:47.865Z,1068.75
2018-07-27T10:59:47.880Z,995.63
2018-07-27T11:00:47.894Z,950.63
2018-07-27T11:01:47.910Z,922.50
2018-07-27T11:02:47.922Z,888.75
2018-07-27T11:03:47.937Z,860.63
2018-07-27T11:04:48.046Z,855.00
2018-07-27T11:05:47.963Z,826.88
2018-07-27T11:06:47.980Z,815.63
2018-07-27T11:07:47.990Z,810.00
2018-07-27T11:08:48.010Z,804.38
2018-07-27T11:09:48.112Z,815.63
2018-07-27T11:10:48.123Z,821.25
2018-07-27T11:11:48.045Z,832.50
2018-07-27T11:12:48.059Z,855.00
2018-07-27T11:13:48.072Z,877.50
2018-07-27T11:14:48.087Z,894.38
2018-07-27T11:15:48.098Z,900.00
2018-07-27T11:16:48.113Z,894.38
2018-07-27T11:17:48.130Z,900.00
2018-07-27T11:18:48.139Z,900.00
2018-07-27T11:19:48.174Z,900.00
2018-07-27T11:20:48.166Z,883.13
2018-07-27T11:21:48.178Z,860.63
2018-07-27T11:22:48.192Z,826.88
2018-07-27T11:23:48.206Z,804.38
2018-07-27T11:24:48.437Z,759.38
2018-07-27T11:25:48.352Z,731.25
2018-07-27T11:26:48.246Z,691.88
2018-07-27T11:27:48.260Z,663.75
2018-07-27T11:28:48.272Z,652.50
2018-07-27T11:29:48.285Z,641.25
2018-07-27T11:30:48.297Z,641.25
2018-07-27T11:31:48.313Z,641.25
2018-07-27T11:32:48.325Z,635.63
2018-07-27T11:33:48.376Z,624.38
2018-07-27T11:34:48.352Z,613.13
2018-07-27T11:35:48.366Z,601.88
2018-07-27T11:36:48.377Z,601.88
2018-07-27T11:37:48.394Z,551.25
2018-07-27T11:38:48.405Z,472.50
2018-07-27T11:39:48.419Z,427.50
2018-07-27T11:40:48.463Z,388.13
2018-07-27T11:41:48.599Z,360.00
2018-07-27T11:42:48.459Z,360.00
2018-07-27T11:43:48.473Z,360.00
2018-07-27T11:44:48.491Z,354.38
2018-07-27T11:45:48.499Z,348.75
2018-07-27T11:46:48.888Z,343.13
2018-07-27T11:47:48.546Z,331.88
2018-07-27T11:48:48.539Z,326.25
2018-07-27T11:49:48.553Z,326.25
2018-07-27T11:50:48.567Z,326.25
2018-07-27T11:51:48.579Z,320.63
2018-07-27T11:52:48.592Z,315.00
2018-07-27T11:53:48.604Z,315.00
2018-07-27T11:54:48.618Z,315.00
2018-07-27T11:55:48.632Z,315.00
2018-07-27T11:56:48.644Z,315.00
2018-07-27T11:57:48.657Z,326.25
2018-07-27T11:58:48.670Z,315.00
2018-07-27T11:59:48.683Z,320.63
2018-07-27T12:00:48.710Z,315.00
2018-07-27T12:01:48.750Z,315.00
2018-07-27T12:02:48.721Z,320.63
2018-07-27T12:03:48.734Z,320.63
2018-07-27T12:04:48.747Z,320.63
2018-07-27T12:05:48.759Z,320.63
2018-07-27T12:06:48.772Z,320.63
2018-07-27T12:07:48.786Z,320.63
2018-07-27T12:08:48.797Z,320.63
2018-07-27T12:09:48.809Z,320.63
2018-07-27T12:10:48.822Z,320.63
2018-07-27T12:11:48.835Z,320.63
2018-07-27T12:12:48.851Z,320.63
2018-07-27T12:13:48.920Z,320.63
2018-07-27T12:14:49.025Z,320.63
2018-07-27T12:15:48.885Z,326.25
2018-07-27T12:16:48.899Z,326.25
2018-07-27T12:17:48.994Z,337.50
2018-07-27T12:18:48.922Z,331.88
2018-07-27T12:19:48.936Z,337.50
2018-07-27T12:20:48.979Z,337.50
2018-07-27T12:21:49.174Z,343.13
2018-07-27T12:22:48.973Z,354.38
2018-07-27T12:23:48.989Z,365.63
2018-07-27T12:24:48.997Z,393.75
2018-07-27T12:25:49.009Z,416.25
2018-07-27T12:26:49.269Z,416.25
2018-07-27T12:27:49.037Z,416.25
2018-07-27T12:28:49.047Z,410.63
2018-07-27T12:29:49.060Z,410.63
2018-07-27T12:30:49.071Z,410.63
2018-07-27T12:31:49.087Z,410.63
2018-07-27T12:32:49.098Z,416.25
2018-07-27T12:33:49.110Z,399.38
2018-07-27T12:34:49.120Z,393.75
2018-07-27T12:35:49.134Z,388.13
2018-07-27T12:36:49.144Z,376.88
2018-07-27T12:37:49.181Z,371.25
2018-07-27T12:38:49.172Z,360.00
2018-07-27T12:39:49.182Z,354.38
2018-07-27T12:40:49.194Z,354.38
2018-07-27T12:41:49.205Z,348.75
2018-07-27T12:42:49.217Z,354.38
2018-07-27T12:43:49.231Z,343.13
2018-07-27T12:44:49.288Z,343.13
2018-07-27T12:45:49.266Z,337.50
2018-07-27T12:46:49.266Z,337.50
2018-07-27T12:47:49.279Z,337.50
2018-07-27T12:48:49.290Z,343.13
2018-07-27T12:49:49.301Z,337.50
2018-07-27T12:50:49.316Z,331.88
2018-07-27T12:51:49.332Z,331.88
2018-07-27T12:52:49.338Z,326.25
2018-07-27T12:53:49.409Z,326.25
2018-07-27T12:54:49.449Z,326.25
2018-07-27T12:55:49.375Z,326.25
2018-07-27T12:56:49.388Z,326.25
2018-07-27T12:57:49.399Z,320.63
2018-07-27T12:58:49.411Z,320.63
2018-07-27T12:59:49.424Z,320.63
2018-07-27T13:00:49.437Z,315.00
2018-07-27T13:01:49.474Z,315.00
2018-07-27T13:02:49.484Z,315.00
2018-07-27T13:03:49.472Z,320.63
2018-07-27T13:04:49.485Z,320.63
2018-07-27T13:05:49.495Z,315.00
2018-07-27T13:06:49.856Z,315.00
2018-07-27T13:07:49.796Z,315.00
2018-07-27T13:08:49.651Z,315.00
2018-07-27T13:09:49.767Z,315.00
2018-07-27T13:10:49.594Z,320.63
2018-07-27T13:11:49.620Z,315.00
2018-07-27T13:12:49.744Z,309.38
2018-07-27T13:13:49.591Z,309.38
2018-07-27T13:14:49.624Z,309.38
2018-07-27T13:15:49.668Z,309.38
2018-07-27T13:16:49.627Z,309.38
2018-07-27T13:17:49.794Z,315.00
2018-07-27T13:18:49.852Z,309.38
2018-07-27T13:19:49.662Z,309.38
2018-07-27T13:20:49.679Z,309.38
2018-07-27T13:21:49.725Z,309.38
2018-07-27T13:22:49.698Z,309.38
2018-07-27T13:23:49.712Z,309.38
2018-07-27T13:24:56.734Z,309.38
2018-07-27T13:25:49.789Z,309.38
2018-07-27T13:26:49.748Z,303.75
2018-07-27T13:27:49.758Z,303.75
2018-07-27T13:28:49.865Z,303.75
2018-07-27T13:29:49.783Z,303.75
2018-07-27T13:30:49.958Z,303.75
2018-07-27T13:31:49.825Z,303.75
2018-07-27T13:32:49.813Z,303.75
2018-07-27T13:33:49.823Z,303.75
2018-07-27T13:34:49.846Z,303.75
2018-07-27T13:35:49.857Z,298.13
2018-07-27T13:36:49.858Z,298.13
2018-07-27T13:37:49.868Z,298.13
2018-07-27T13:38:49.880Z,298.13
2018-07-27T13:39:49.898Z,298.13
2018-07-27T13:40:49.903Z,298.13
2018-07-27T13:41:50.204Z,298.13
2018-07-27T13:42:49.924Z,298.13
2018-07-27T13:43:49.949Z,298.13
2018-07-27T13:44:49.946Z,298.13
2018-07-27T13:45:49.955Z,298.13
2018-07-27T13:46:49.966Z,298.13
2018-07-27T13:47:49.979Z,298.13
2018-07-27T13:48:49.989Z,298.13
2018-07-27T13:49:50.001Z,292.50
2018-07-27T13:50:50.012Z,292.50
2018-07-27T13:51:50.024Z,292.50
2018-07-27T13:52:50.278Z,292.50
2018-07-27T13:53:50.045Z,292.50
2018-07-27T13:54:50.057Z,292.50
2018-07-27T13:55:50.067Z,292.50
2018-07-27T13:56:50.081Z,292.50
2018-07-27T13:57:50.089Z,292.50
2018-07-27T13:58:50.114Z,292.50
2018-07-27T13:59:50.110Z,292.50
2018-07-27T14:00:50.121Z,286.88
2018-07-27T14:01:50.387Z,286.88
2018-07-27T14:02:50.143Z,286.88
2018-07-27T14:03:50.470Z,286.88
2018-07-27T14:04:50.165Z,286.88
2018-07-27T14:05:50.177Z,292.50
2018-07-27T14:06:50.481Z,286.88
2018-07-27T14:07:50.202Z,286.88
2018-07-27T14:08:50.213Z,281.25
2018-07-27T14:09:50.225Z,286.88
2018-07-27T14:10:50.239Z,281.25
2018-07-27T14:11:50.243Z,281.25
2018-07-27T14:12:50.253Z,281.25
2018-07-27T14:13:50.264Z,281.25
2018-07-27T14:14:50.278Z,281.25
2018-07-27T14:15:50.287Z,275.63
2018-07-27T14:16:50.564Z,275.63
2018-07-27T14:17:50.307Z,275.63
2018-07-27T14:18:50.319Z,275.63
2018-07-27T14:19:50.331Z,275.63
2018-07-27T14:20:50.340Z,275.63
2018-07-27T14:21:50.397Z,270.00
2018-07-27T14:22:50.361Z,275.63
2018-07-27T14:23:50.389Z,270.00
2018-07-27T14:24:50.380Z,270.00
2018-07-27T14:25:50.390Z,270.00
2018-07-27T14:26:50.402Z,270.00
2018-07-27T14:27:50.412Z,264.38
2018-07-27T14:28:50.426Z,264.38
2018-07-27T14:29:50.432Z,264.38
2018-07-27T14:30:50.442Z,258.75
2018-07-27T14:31:50.454Z,258.75
2018-07-27T14:32:50.463Z,258.75
2018-07-27T14:33:50.474Z,258.75
2018-07-27T14:34:50.483Z,258.75
2018-07-27T14:35:50.494Z,253.13
2018-07-27T14:36:50.559Z,253.13
2018-07-27T14:37:50.513Z,253.13
2018-07-27T14:38:50.820Z,247.50
2018-07-27T14:39:50.535Z,247.50
2018-07-27T14:40:50.544Z,247.50
2018-07-27T14:41:50.704Z,241.88
2018-07-27T14:42:50.672Z,241.88
2018-07-27T14:43:50.572Z,236.25
2018-07-27T14:44:50.584Z,225.00
2018-07-27T14:45:50.591Z,219.38
2018-07-27T14:46:50.602Z,213.75
2018-07-27T14:47:50.611Z,213.75
2018-07-27T14:48:50.621Z,213.75
2018-07-27T14:49:50.631Z,208.13
2018-07-27T14:50:50.639Z,202.50
2018-07-27T14:51:50.649Z,202.50
2018-07-27T14:52:50.702Z,196.88
2018-07-27T14:53:50.955Z,191.25
2018-07-27T14:54:50.985Z,196.88
2018-07-27T14:55:50.936Z,191.25
2018-07-27T14:56:50.696Z,185.63
2018-07-27T14:57:50.705Z,185.63
2018-07-27T14:58:50.715Z,180.00
2018-07-27T14:59:51.012Z,174.38
2018-07-27T15:00:51.066Z,174.38
2018-07-27T15:01:50.741Z,168.75
2018-07-27T15:02:50.754Z,168.75
2018-07-27T15:03:50.761Z,168.75
2018-07-27T15:04:50.816Z,168.75
2018-07-27T15:05:50.780Z,163.13
2018-07-27T15:06:50.792Z,163.13
2018-07-27T15:07:50.798Z,157.50
2018-07-27T15:08:51.312Z,163.13
2018-07-27T15:09:50.816Z,151.88
2018-07-27T15:10:50.826Z,151.88
2018-07-27T15:11:50.835Z,146.25
2018-07-27T15:12:50.896Z,146.25
2018-07-27T15:13:50.851Z,146.25
2018-07-27T15:14:50.861Z,146.25
2018-07-27T15:15:50.870Z,146.25
2018-07-27T15:16:50.880Z,146.25
2018-07-27T15:17:50.887Z,140.63
2018-07-27T15:18:50.897Z,140.63
2018-07-27T15:19:50.906Z,140.63
2018-07-27T15:20:50.914Z,135.00
2018-07-27T15:21:50.926Z,135.00
2018-07-27T15:22:50.931Z,135.00
2018-07-27T15:23:50.941Z,129.38
2018-07-27T15:24:50.949Z,129.38
2018-07-27T15:25:50.960Z,123.75
2018-07-27T15:26:50.965Z,123.75
2018-07-27T15:27:50.975Z,123.75
2018-07-27T15:28:50.983Z,123.75
2018-07-27T15:29:50.991Z,118.13
2018-07-27T15:30:51.004Z,118.13
2018-07-27T15:31:51.008Z,112.50
2018-07-27T15:32:51.017Z,112.50
2018-07-27T15:33:51.025Z,112.50
2018-07-27T15:34:51.034Z,106.88
2018-07-27T15:35:51.042Z,112.50
2018-07-27T15:36:51.052Z,106.88
2018-07-27T15:37:51.059Z,101.25
2018-07-27T15:38:51.067Z,101.25
2018-07-27T15:39:51.076Z,95.63
2018-07-27T15:40:51.085Z,95.63
2018-07-27T15:41:51.092Z,95.63
2018-07-27T15:42:51.142Z,95.63
2018-07-27T15:43:51.110Z,95.63
2018-07-27T15:44:51.126Z,90.00
2018-07-27T15:45:51.125Z,90.00
2018-07-27T15:46:51.360Z,90.00
2018-07-27T15:47:51.161Z,90.00
2018-07-27T15:48:51.659Z,84.38
2018-07-27T15:49:51.157Z,84.38
2018-07-27T15:50:51.586Z,84.38
2018-07-27T15:51:51.366Z,84.38
2018-07-27T15:52:51.185Z,78.75
2018-07-27T15:53:51.191Z,78.75
2018-07-27T15:54:51.197Z,78.75
2018-07-27T15:55:51.259Z,78.75
2018-07-27T15:56:51.214Z,73.13
2018-07-27T15:57:51.221Z,73.13
2018-07-27T15:58:51.232Z,73.13
2018-07-27T15:59:53.441Z,73.13
2018-07-27T16:00:51.543Z,73.13
2018-07-27T16:01:51.251Z,73.13
2018-07-27T16:02:51.260Z,73.13
2018-07-27T16:03:51.304Z,73.13
2018-07-27T16:04:51.276Z,67.50
2018-07-27T16:05:51.283Z,73.13
2018-07-27T16:06:51.290Z,56.25
2018-07-27T16:07:51.298Z,67.50
2018-07-27T16:08:51.306Z,67.50
2018-07-27T16:09:51.312Z,67.50
2018-07-27T16:10:51.320Z,73.13
2018-07-27T16:11:51.328Z,67.50
2018-07-27T16:12:51.337Z,67.50
2018-07-27T16:13:51.357Z,67.50
2018-07-27T16:14:51.351Z,50.63
2018-07-27T16:15:53.049Z,50.63
2018-07-27T16:16:51.367Z,50.63
2018-07-27T16:17:51.373Z,50.63
2018-07-27T16:18:51.384Z,56.25
2018-07-27T16:19:51.392Z,50.63
2018-07-27T16:20:51.396Z,50.63
2018-07-27T16:21:51.743Z,61.88
2018-07-27T16:22:51.413Z,67.50
2018-07-27T16:23:51.418Z,73.13
2018-07-27T16:24:51.427Z,67.50
2018-07-27T16:25:51.459Z,67.50
2018-07-27T16:26:51.442Z,67.50
2018-07-27T16:27:51.449Z,67.50
2018-07-27T16:28:51.680Z,67.50
2018-07-27T16:29:51.464Z,67.50
2018-07-27T16:30:51.471Z,73.13
2018-07-27T16:31:51.929Z,73.13
2018-07-27T16:32:51.829Z,73.13
2018-07-27T16:33:51.493Z,67.50
2018-07-27T16:34:51.859Z,73.13
2018-07-27T16:35:51.798Z,73.13
2018-07-27T16:36:51.516Z,78.75
2018-07-27T16:37:51.523Z,73.13
2018-07-27T16:38:51.530Z,73.13
2018-07-27T16:39:51.700Z,73.13
2018-07-27T16:40:51.786Z,67.50
2018-07-27T16:41:52.006Z,67.50
2018-07-27T16:42:51.560Z,67.50
2018-07-27T16:43:51.568Z,67.50
2018-07-27T16:44:51.575Z,67.50
2018-07-27T16:45:51.582Z,73.13
2018-07-27T16:46:51.597Z,78.75
2018-07-27T16:47:51.597Z,78.75
2018-07-27T16:48:51.605Z,78.75
2018-07-27T16:49:51.612Z,78.75
2018-07-27T16:50:51.619Z,78.75
2018-07-27T16:51:51.630Z,73.13
2018-07-27T16:52:51.661Z,73.13
2018-07-27T16:53:51.640Z,67.50
2018-07-27T16:54:51.648Z,67.50
2018-07-27T16:55:51.655Z,61.88
2018-07-27T16:56:51.792Z,61.88
2018-07-27T16:57:51.669Z,61.88
2018-07-27T16:58:51.676Z,56.25
2018-07-27T16:59:51.693Z,50.63
2018-07-27T17:00:51.691Z,50.63
2018-07-27T17:01:51.709Z,45.00
2018-07-27T17:02:51.706Z,45.00
2018-07-27T17:03:51.715Z,45.00
2018-07-27T17:04:51.719Z,45.00
2018-07-27T17:05:51.726Z,45.00
2018-07-27T17:06:51.736Z,45.00
2018-07-27T17:07:51.740Z,45.00
2018-07-27T17:08:51.748Z,45.00
2018-07-27T17:09:51.753Z,45.00
2018-07-27T17:10:51.761Z,39.38
2018-07-27T17:11:51.767Z,39.38
2018-07-27T17:12:51.774Z,39.38
2018-07-27T17:13:51.781Z,39.38
2018-07-27T17:14:51.787Z,39.38
2018-07-27T17:15:51.794Z,39.38
2018-07-27T17:16:51.802Z,39.38
2018-07-27T17:17:51.807Z,39.38
2018-07-27T17:18:51.815Z,39.38
2018-07-27T17:19:51.830Z,39.38
2018-07-27T17:20:51.828Z,39.38
2018-07-27T17:21:51.835Z,39.38
2018-07-27T17:22:51.841Z,39.38
2018-07-27T17:23:51.850Z,39.38
2018-07-27T17:24:51.855Z,33.75
2018-07-27T17:25:51.881Z,28.13
2018-07-27T17:26:51.868Z,28.13
2018-07-27T17:27:51.885Z,33.75
2018-07-27T17:28:51.883Z,33.75
2018-07-27T17:29:51.900Z,33.75
2018-07-27T17:30:51.898Z,33.75
2018-07-27T17:31:51.902Z,33.75
2018-07-27T17:32:51.928Z,28.13
2018-07-27T17:33:51.917Z,28.13
2018-07-27T17:34:51.920Z,28.13
2018-07-27T17:35:51.936Z,28.13
2018-07-27T17:36:51.934Z,28.13
2018-07-27T17:37:51.939Z,33.75
2018-07-27T17:38:51.948Z,33.75
2018-07-27T17:39:51.953Z,33.75
2018-07-27T17:40:51.960Z,28.13
2018-07-27T17:41:51.967Z,28.13
2018-07-27T17:42:52.027Z,28.13
2018-07-27T17:43:51.979Z,28.13
2018-07-27T17:44:52.008Z,28.13
2018-07-27T17:45:51.991Z,28.13
2018-07-27T17:46:52.003Z,28.13
2018-07-27T17:47:52.007Z,28.13
2018-07-27T17:48:52.013Z,28.13
2018-07-27T17:49:52.018Z,28.13
2018-07-27T17:50:52.026Z,28.13
2018-07-27T17:51:52.030Z,28.13
2018-07-27T17:52:52.037Z,28.13
2018-07-27T17:53:52.043Z,22.50
2018-07-27T17:54:52.080Z,28.13
2018-07-27T17:55:52.056Z,28.13
2018-07-27T17:56:52.061Z,28.13
2018-07-27T17:57:52.067Z,28.13
2018-07-27T17:58:52.074Z,28.13
2018-07-27T17:59:52.082Z,28.13
2018-07-27T18:00:52.088Z,28.13
2018-07-27T18:01:52.094Z,28.13
2018-07-27T18:02:52.122Z,28.13
2018-07-27T18:03:52.107Z,22.50
2018-07-27T18:04:52.113Z,22.50
2018-07-27T18:05:52.118Z,22.50
2018-07-27T18:06:52.152Z,22.50
2018-07-27T18:07:52.243Z,22.50
2018-07-27T18:08:52.137Z,22.50
2018-07-27T18:09:52.144Z,22.50
2018-07-27T18:10:52.151Z,22.50
2018-07-27T18:11:52.157Z,22.50
2018-07-27T18:12:52.167Z,22.50
2018-07-27T18:13:52.171Z,16.88
2018-07-27T18:14:52.175Z,16.88
2018-07-27T18:15:52.181Z,16.88
2018-07-27T18:16:52.186Z,16.88
2018-07-27T18:17:52.197Z,16.88
2018-07-27T18:18:52.201Z,16.88
2018-07-27T18:19:52.204Z,11.25
2018-07-27T18:20:52.210Z,11.25